sensor_id;sensor_type;location;lat;lon;timestamp;temperature;humidity
24226;DHT22;51462;51.422;5.514;2024-03-02T00:00:10;9.80;99.90
24226;DHT22;51462;51.422;5.514;2024-03-02T00:02:42;9.70;99.90
24226;DHT22;51462;51.422;5.514;2024-03-02T00:05:11;9.80;99.90
24226;DHT22;51462;51.422;5.514;2024-03-02T00:07:37;9.80;99.90
24226;DHT22;51462;51.422;5.514;2024-03-02T00:10:08;9.80;99.90
24226;DHT22;51462;51.422;5.514;2024-03-02T00:12:36;9.60;99.90
24226;DHT22;51462;51.422;5.514;2024-03-02T00:15:05;9.60;99.90
24226;DHT22;51462;51.422;5.514;2024-03-02T00:17:32;9.50;99.90
24226;DHT22;51462;51.422;5.514;2024-03-02T00:19:58;8.90;99.90
24226;DHT22;51462;51.422;5.514;2024-03-02T00:22:23;8.70;99.90
24226;DHT22;51462;51.422;5.514;2024-03-02T00:24:49;8.50;99.90
24226;DHT22;51462;51.422;5.514;2024-03-02T00:27:15;8.60;99.90
24226;DHT22;51462;51.422;5.514;2024-03-02T00:29:43;8.40;99.90
24226;DHT22;51462;51.422;5.514;2024-03-02T00:32:13;8.50;99.90
24226;DHT22;51462;51.422;5.514;2024-03-02T00:34:39;8.50;99.90
24226;DHT22;51462;51.422;5.514;2024-03-02T00:37:05;8.40;99.90
24226;DHT22;51462;51.422;5.514;2024-03-02T00:39:31;8.20;99.90
24226;DHT22;51462;51.422;5.514;2024-03-02T00:41:57;8.40;99.90
24226;DHT22;51462;51.422;5.514;2024-03-02T00:44:25;8.40;99.90
24226;DHT22;51462;51.422;5.514;2024-03-02T00:46:52;8.40;99.90
24226;DHT22;51462;51.422;5.514;2024-03-02T00:49:23;8.20;99.90
24226;DHT22;51462;51.422;5.514;2024-03-02T00:51:53;8.20;99.90
24226;DHT22;51462;51.422;5.514;2024-03-02T00:54:26;8.30;99.90
24226;DHT22;51462;51.422;5.514;2024-03-02T00:56:54;8.20;99.90
24226;DHT22;51462;51.422;5.514;2024-03-02T00:59:24;8.20;99.90
24226;DHT22;51462;51.422;5.514;2024-03-02T01:01:50;8.40;99.90
24226;DHT22;51462;51.422;5.514;2024-03-02T01:04:16;8.60;99.90
24226;DHT22;51462;51.422;5.514;2024-03-02T01:06:42;8.60;99.90
24226;DHT22;51462;51.422;5.514;2024-03-02T01:09:08;8.50;99.90
24226;DHT22;51462;51.422;5.514;2024-03-02T01:11:34;8.70;99.90
24226;DHT22;51462;51.422;5.514;2024-03-02T01:13:59;8.70;99.90
24226;DHT22;51462;51.422;5.514;2024-03-02T01:16:25;8.50;99.90
24226;DHT22;51462;51.422;5.514;2024-03-02T01:18:50;8.50;99.90
24226;DHT22;51462;51.422;5.514;2024-03-02T01:21:16;8.60;99.90
24226;DHT22;51462;51.422;5.514;2024-03-02T01:23:42;8.70;99.90
24226;DHT22;51462;51.422;5.514;2024-03-02T01:26:08;8.60;99.90
24226;DHT22;51462;51.422;5.514;2024-03-02T01:28:34;8.50;99.90
24226;DHT22;51462;51.422;5.514;2024-03-02T01:30:59;8.70;99.90
24226;DHT22;51462;51.422;5.514;2024-03-02T01:33:25;8.80;99.90
24226;DHT22;51462;51.422;5.514;2024-03-02T01:35:50;8.90;99.90
24226;DHT22;51462;51.422;5.514;2024-03-02T01:38:16;9.10;99.90
24226;DHT22;51462;51.422;5.514;2024-03-02T01:40:42;9.00;99.90
24226;DHT22;51462;51.422;5.514;2024-03-02T01:43:10;8.70;99.90
24226;DHT22;51462;51.422;5.514;2024-03-02T01:45:35;8.80;99.90
24226;DHT22;51462;51.422;5.514;2024-03-02T01:48:04;8.90;99.90
24226;DHT22;51462;51.422;5.514;2024-03-02T01:50:31;8.80;99.90
24226;DHT22;51462;51.422;5.514;2024-03-02T01:52:58;8.50;99.90
24226;DHT22;51462;51.422;5.514;2024-03-02T01:55:23;8.70;99.90
24226;DHT22;51462;51.422;5.514;2024-03-02T01:57:50;8.70;99.90
24226;DHT22;51462;51.422;5.514;2024-03-02T02:00:20;8.60;99.90
24226;DHT22;51462;51.422;5.514;2024-03-02T02:02:46;8.60;99.90
24226;DHT22;51462;51.422;5.514;2024-03-02T02:05:13;8.70;99.90
24226;DHT22;51462;51.422;5.514;2024-03-02T02:07:40;8.60;99.90
24226;DHT22;51462;51.422;5.514;2024-03-02T02:10:06;8.80;99.90
24226;DHT22;51462;51.422;5.514;2024-03-02T02:12:32;8.90;99.90
24226;DHT22;51462;51.422;5.514;2024-03-02T02:14:58;8.90;99.90
24226;DHT22;51462;51.422;5.514;2024-03-02T02:17:23;8.70;99.90
24226;DHT22;51462;51.422;5.514;2024-03-02T02:19:49;8.50;99.90
24226;DHT22;51462;51.422;5.514;2024-03-02T02:22:14;8.30;99.90
24226;DHT22;51462;51.422;5.514;2024-03-02T02:24:41;8.40;99.90
24226;DHT22;51462;51.422;5.514;2024-03-02T02:27:10;8.60;99.90
24226;DHT22;51462;51.422;5.514;2024-03-02T02:29:36;8.50;99.90
24226;DHT22;51462;51.422;5.514;2024-03-02T02:32:02;8.50;99.90
24226;DHT22;51462;51.422;5.514;2024-03-02T02:34:28;8.60;99.90
24226;DHT22;51462;51.422;5.514;2024-03-02T02:36:54;8.40;99.90
24226;DHT22;51462;51.422;5.514;2024-03-02T02:39:21;8.60;99.90
24226;DHT22;51462;51.422;5.514;2024-03-02T02:41:48;8.60;99.90
24226;DHT22;51462;51.422;5.514;2024-03-02T02:44:13;8.90;99.90
24226;DHT22;51462;51.422;5.514;2024-03-02T02:46:39;8.70;99.90
24226;DHT22;51462;51.422;5.514;2024-03-02T02:49:05;8.70;99.90
24226;DHT22;51462;51.422;5.514;2024-03-02T02:51:31;8.60;99.90
24226;DHT22;51462;51.422;5.514;2024-03-02T02:53:56;8.50;99.90
24226;DHT22;51462;51.422;5.514;2024-03-02T02:56:22;8.30;99.90
24226;DHT22;51462;51.422;5.514;2024-03-02T02:58:47;8.60;99.90
24226;DHT22;51462;51.422;5.514;2024-03-02T03:01:14;8.40;99.90
24226;DHT22;51462;51.422;5.514;2024-03-02T03:03:40;8.40;99.90
24226;DHT22;51462;51.422;5.514;2024-03-02T03:06:06;8.20;99.90
24226;DHT22;51462;51.422;5.514;2024-03-02T03:08:31;8.30;99.90
24226;DHT22;51462;51.422;5.514;2024-03-02T03:10:57;8.40;99.90
24226;DHT22;51462;51.422;5.514;2024-03-02T03:13:22;8.40;99.90
24226;DHT22;51462;51.422;5.514;2024-03-02T03:15:48;8.30;99.90
24226;DHT22;51462;51.422;5.514;2024-03-02T03:18:13;8.10;99.90
24226;DHT22;51462;51.422;5.514;2024-03-02T03:20:39;8.40;99.90
24226;DHT22;51462;51.422;5.514;2024-03-02T03:23:04;8.40;99.90
24226;DHT22;51462;51.422;5.514;2024-03-02T03:25:30;8.60;99.90
24226;DHT22;51462;51.422;5.514;2024-03-02T03:27:56;8.30;99.90
24226;DHT22;51462;51.422;5.514;2024-03-02T03:30:21;8.20;99.90
24226;DHT22;51462;51.422;5.514;2024-03-02T03:32:47;8.50;99.90
24226;DHT22;51462;51.422;5.514;2024-03-02T03:35:15;8.60;99.90
24226;DHT22;51462;51.422;5.514;2024-03-02T03:37:41;8.50;99.90
24226;DHT22;51462;51.422;5.514;2024-03-02T03:40:07;8.50;99.90
24226;DHT22;51462;51.422;5.514;2024-03-02T03:42:35;8.50;99.90
24226;DHT22;51462;51.422;5.514;2024-03-02T03:45:02;8.40;99.90
24226;DHT22;51462;51.422;5.514;2024-03-02T03:47:27;8.50;99.90
24226;DHT22;51462;51.422;5.514;2024-03-02T03:49:53;8.50;99.90
24226;DHT22;51462;51.422;5.514;2024-03-02T03:52:18;8.60;99.90
24226;DHT22;51462;51.422;5.514;2024-03-02T03:54:44;8.80;99.90
24226;DHT22;51462;51.422;5.514;2024-03-02T03:57:10;8.70;99.90
24226;DHT22;51462;51.422;5.514;2024-03-02T03:59:35;8.30;99.90
24226;DHT22;51462;51.422;5.514;2024-03-02T04:02:03;8.60;99.90
24226;DHT22;51462;51.422;5.514;2024-03-02T04:04:28;8.30;99.90
24226;DHT22;51462;51.422;5.514;2024-03-02T04:06:54;8.40;99.90
24226;DHT22;51462;51.422;5.514;2024-03-02T04:09:19;8.60;99.90
24226;DHT22;51462;51.422;5.514;2024-03-02T04:11:45;8.40;99.90
24226;DHT22;51462;51.422;5.514;2024-03-02T04:14:10;8.60;99.90
24226;DHT22;51462;51.422;5.514;2024-03-02T04:16:38;8.50;99.90
24226;DHT22;51462;51.422;5.514;2024-03-02T04:19:03;8.70;99.90
24226;DHT22;51462;51.422;5.514;2024-03-02T04:21:29;8.80;99.90
24226;DHT22;51462;51.422;5.514;2024-03-02T04:23:55;8.90;99.90
24226;DHT22;51462;51.422;5.514;2024-03-02T04:26:24;8.70;99.90
24226;DHT22;51462;51.422;5.514;2024-03-02T04:28:51;8.60;99.90
24226;DHT22;51462;51.422;5.514;2024-03-02T04:31:16;8.60;99.90
24226;DHT22;51462;51.422;5.514;2024-03-02T04:33:42;8.80;99.90
24226;DHT22;51462;51.422;5.514;2024-03-02T04:36:08;8.60;99.90
24226;DHT22;51462;51.422;5.514;2024-03-02T04:38:35;8.60;99.90
24226;DHT22;51462;51.422;5.514;2024-03-02T04:41:01;8.60;99.90
24226;DHT22;51462;51.422;5.514;2024-03-02T04:43:26;8.60;99.90
24226;DHT22;51462;51.422;5.514;2024-03-02T04:45:52;8.70;99.90
24226;DHT22;51462;51.422;5.514;2024-03-02T04:48:17;8.90;99.90
24226;DHT22;51462;51.422;5.514;2024-03-02T04:50:44;8.80;99.90
24226;DHT22;51462;51.422;5.514;2024-03-02T04:53:10;8.80;99.90
24226;DHT22;51462;51.422;5.514;2024-03-02T04:55:35;8.70;99.90
24226;DHT22;51462;51.422;5.514;2024-03-02T04:58:07;8.80;99.90
24226;DHT22;51462;51.422;5.514;2024-03-02T05:00:33;8.90;99.90
24226;DHT22;51462;51.422;5.514;2024-03-02T05:02:59;8.80;99.90
24226;DHT22;51462;51.422;5.514;2024-03-02T05:05:24;8.60;99.90
24226;DHT22;51462;51.422;5.514;2024-03-02T05:07:50;8.40;99.90
24226;DHT22;51462;51.422;5.514;2024-03-02T05:10:15;8.50;99.90
24226;DHT22;51462;51.422;5.514;2024-03-02T05:12:41;8.40;99.90
24226;DHT22;51462;51.422;5.514;2024-03-02T05:15:07;8.50;99.90
24226;DHT22;51462;51.422;5.514;2024-03-02T05:17:33;8.60;99.90
24226;DHT22;51462;51.422;5.514;2024-03-02T05:19:59;8.70;99.90
24226;DHT22;51462;51.422;5.514;2024-03-02T05:22:24;8.70;99.90
24226;DHT22;51462;51.422;5.514;2024-03-02T05:24:50;8.40;99.90
24226;DHT22;51462;51.422;5.514;2024-03-02T05:27:16;8.60;99.90
24226;DHT22;51462;51.422;5.514;2024-03-02T05:29:41;8.80;99.90
24226;DHT22;51462;51.422;5.514;2024-03-02T05:32:07;8.60;99.90
24226;DHT22;51462;51.422;5.514;2024-03-02T05:34:32;8.50;99.90
24226;DHT22;51462;51.422;5.514;2024-03-02T05:37:01;8.40;99.90
24226;DHT22;51462;51.422;5.514;2024-03-02T05:39:26;8.60;99.90
24226;DHT22;51462;51.422;5.514;2024-03-02T05:41:52;8.40;99.90
24226;DHT22;51462;51.422;5.514;2024-03-02T05:44:17;8.20;99.90
24226;DHT22;51462;51.422;5.514;2024-03-02T05:46:44;8.40;99.90
24226;DHT22;51462;51.422;5.514;2024-03-02T05:49:09;8.40;99.90
24226;DHT22;51462;51.422;5.514;2024-03-02T05:51:35;8.70;99.90
24226;DHT22;51462;51.422;5.514;2024-03-02T05:54:01;8.60;99.90
24226;DHT22;51462;51.422;5.514;2024-03-02T05:56:27;8.60;99.90
24226;DHT22;51462;51.422;5.514;2024-03-02T05:58:52;8.40;99.90
24226;DHT22;51462;51.422;5.514;2024-03-02T06:01:37;8.70;99.90
24226;DHT22;51462;51.422;5.514;2024-03-02T06:04:02;8.60;99.90
24226;DHT22;51462;51.422;5.514;2024-03-02T06:06:28;8.50;99.90
24226;DHT22;51462;51.422;5.514;2024-03-02T06:08:53;8.60;99.90
24226;DHT22;51462;51.422;5.514;2024-03-02T06:11:20;8.50;99.90
24226;DHT22;51462;51.422;5.514;2024-03-02T06:13:46;8.60;99.90
24226;DHT22;51462;51.422;5.514;2024-03-02T06:16:11;8.60;99.90
24226;DHT22;51462;51.422;5.514;2024-03-02T06:18:37;8.60;99.90
24226;DHT22;51462;51.422;5.514;2024-03-02T06:21:03;8.70;99.90
24226;DHT22;51462;51.422;5.514;2024-03-02T06:23:29;8.50;99.90
24226;DHT22;51462;51.422;5.514;2024-03-02T06:25:54;8.70;99.90
24226;DHT22;51462;51.422;5.514;2024-03-02T06:28:20;8.60;99.90
24226;DHT22;51462;51.422;5.514;2024-03-02T06:30:46;8.60;99.90
24226;DHT22;51462;51.422;5.514;2024-03-02T06:33:11;8.40;99.90
24226;DHT22;51462;51.422;5.514;2024-03-02T06:35:37;8.40;99.90
24226;DHT22;51462;51.422;5.514;2024-03-02T06:38:03;8.70;99.90
24226;DHT22;51462;51.422;5.514;2024-03-02T06:40:29;8.90;99.90
24226;DHT22;51462;51.422;5.514;2024-03-02T06:42:54;8.90;99.90
24226;DHT22;51462;51.422;5.514;2024-03-02T06:45:20;8.90;99.90
24226;DHT22;51462;51.422;5.514;2024-03-02T06:47:46;8.80;99.90
24226;DHT22;51462;51.422;5.514;2024-03-02T06:50:11;8.70;99.90
24226;DHT22;51462;51.422;5.514;2024-03-02T06:52:37;8.60;99.90
24226;DHT22;51462;51.422;5.514;2024-03-02T06:55:02;8.80;99.90
24226;DHT22;51462;51.422;5.514;2024-03-02T06:57:29;8.70;99.90
24226;DHT22;51462;51.422;5.514;2024-03-02T06:59:55;8.60;99.90
24226;DHT22;51462;51.422;5.514;2024-03-02T07:02:27;8.60;99.90
24226;DHT22;51462;51.422;5.514;2024-03-02T07:04:55;8.60;99.90
24226;DHT22;51462;51.422;5.514;2024-03-02T07:07:21;8.70;99.90
24226;DHT22;51462;51.422;5.514;2024-03-02T07:09:47;8.60;99.90
24226;DHT22;51462;51.422;5.514;2024-03-02T07:12:13;8.50;99.90
24226;DHT22;51462;51.422;5.514;2024-03-02T07:14:39;8.50;99.90
24226;DHT22;51462;51.422;5.514;2024-03-02T07:17:23;8.30;99.90
24226;DHT22;51462;51.422;5.514;2024-03-02T07:19:48;8.40;99.90
24226;DHT22;51462;51.422;5.514;2024-03-02T07:22:14;8.80;99.90
24226;DHT22;51462;51.422;5.514;2024-03-02T07:24:43;8.70;99.90
24226;DHT22;51462;51.422;5.514;2024-03-02T07:27:09;8.70;99.90
24226;DHT22;51462;51.422;5.514;2024-03-02T07:29:35;8.50;99.90
24226;DHT22;51462;51.422;5.514;2024-03-02T07:32:01;8.80;99.90
24226;DHT22;51462;51.422;5.514;2024-03-02T07:34:27;8.60;99.90
24226;DHT22;51462;51.422;5.514;2024-03-02T07:36:53;8.90;99.90
24226;DHT22;51462;51.422;5.514;2024-03-02T07:39:18;8.60;99.90
24226;DHT22;51462;51.422;5.514;2024-03-02T07:41:45;8.80;99.90
24226;DHT22;51462;51.422;5.514;2024-03-02T07:44:11;8.80;99.90
24226;DHT22;51462;51.422;5.514;2024-03-02T07:46:40;8.70;99.90
24226;DHT22;51462;51.422;5.514;2024-03-02T07:49:06;8.60;99.90
24226;DHT22;51462;51.422;5.514;2024-03-02T07:51:32;8.70;99.90
24226;DHT22;51462;51.422;5.514;2024-03-02T07:53:57;8.70;99.90
24226;DHT22;51462;51.422;5.514;2024-03-02T07:56:23;8.40;99.90
24226;DHT22;51462;51.422;5.514;2024-03-02T07:58:49;8.40;99.90
24226;DHT22;51462;51.422;5.514;2024-03-02T08:01:14;8.70;99.90
24226;DHT22;51462;51.422;5.514;2024-03-02T08:03:40;8.50;99.90
24226;DHT22;51462;51.422;5.514;2024-03-02T08:06:06;8.70;99.90
24226;DHT22;51462;51.422;5.514;2024-03-02T08:08:32;8.60;99.90
24226;DHT22;51462;51.422;5.514;2024-03-02T08:10:58;8.70;99.90
24226;DHT22;51462;51.422;5.514;2024-03-02T08:13:23;8.70;99.90
24226;DHT22;51462;51.422;5.514;2024-03-02T08:15:49;8.70;99.90
24226;DHT22;51462;51.422;5.514;2024-03-02T08:18:15;8.40;99.90
24226;DHT22;51462;51.422;5.514;2024-03-02T08:20:40;8.40;99.90
24226;DHT22;51462;51.422;5.514;2024-03-02T08:23:06;8.80;99.90
24226;DHT22;51462;51.422;5.514;2024-03-02T08:25:33;8.80;99.90
24226;DHT22;51462;51.422;5.514;2024-03-02T08:27:58;9.00;99.90
24226;DHT22;51462;51.422;5.514;2024-03-02T08:30:24;9.00;99.90
24226;DHT22;51462;51.422;5.514;2024-03-02T08:32:49;9.10;99.90
24226;DHT22;51462;51.422;5.514;2024-03-02T08:35:15;9.00;99.90
24226;DHT22;51462;51.422;5.514;2024-03-02T08:37:41;9.20;99.90
24226;DHT22;51462;51.422;5.514;2024-03-02T08:40:08;9.10;99.90
24226;DHT22;51462;51.422;5.514;2024-03-02T08:42:34;9.20;99.90
24226;DHT22;51462;51.422;5.514;2024-03-02T08:45:00;9.30;99.90
24226;DHT22;51462;51.422;5.514;2024-03-02T08:47:26;9.20;99.90
24226;DHT22;51462;51.422;5.514;2024-03-02T08:49:52;9.40;99.90
24226;DHT22;51462;51.422;5.514;2024-03-02T08:52:18;9.50;99.90
24226;DHT22;51462;51.422;5.514;2024-03-02T08:54:44;9.40;99.90
24226;DHT22;51462;51.422;5.514;2024-03-02T08:57:09;9.50;99.90
24226;DHT22;51462;51.422;5.514;2024-03-02T08:59:35;9.50;99.90
24226;DHT22;51462;51.422;5.514;2024-03-02T09:02:01;9.50;99.90
24226;DHT22;51462;51.422;5.514;2024-03-02T09:04:27;9.50;99.90
24226;DHT22;51462;51.422;5.514;2024-03-02T09:06:53;9.50;99.90
24226;DHT22;51462;51.422;5.514;2024-03-02T09:09:18;9.40;99.90
24226;DHT22;51462;51.422;5.514;2024-03-02T09:11:46;9.50;99.90
24226;DHT22;51462;51.422;5.514;2024-03-02T09:14:12;9.40;99.90
24226;DHT22;51462;51.422;5.514;2024-03-02T09:16:37;9.10;99.90
24226;DHT22;51462;51.422;5.514;2024-03-02T09:19:03;9.30;99.90
24226;DHT22;51462;51.422;5.514;2024-03-02T09:21:29;9.40;99.90
24226;DHT22;51462;51.422;5.514;2024-03-02T09:23:55;9.50;99.90
24226;DHT22;51462;51.422;5.514;2024-03-02T09:26:22;9.40;99.90
24226;DHT22;51462;51.422;5.514;2024-03-02T09:28:48;9.50;99.90
24226;DHT22;51462;51.422;5.514;2024-03-02T09:31:13;9.50;99.90
24226;DHT22;51462;51.422;5.514;2024-03-02T09:33:39;9.40;99.90
24226;DHT22;51462;51.422;5.514;2024-03-02T09:36:05;9.60;99.90
24226;DHT22;51462;51.422;5.514;2024-03-02T09:38:32;9.70;99.90
24226;DHT22;51462;51.422;5.514;2024-03-02T09:41:00;9.90;99.90
24226;DHT22;51462;51.422;5.514;2024-03-02T09:43:26;9.80;99.90
24226;DHT22;51462;51.422;5.514;2024-03-02T09:45:52;9.80;99.90
24226;DHT22;51462;51.422;5.514;2024-03-02T09:48:18;9.80;99.90
24226;DHT22;51462;51.422;5.514;2024-03-02T09:50:46;9.80;99.90
24226;DHT22;51462;51.422;5.514;2024-03-02T09:53:12;9.90;99.90
24226;DHT22;51462;51.422;5.514;2024-03-02T09:55:37;9.90;99.90
24226;DHT22;51462;51.422;5.514;2024-03-02T09:58:05;9.90;99.90
24226;DHT22;51462;51.422;5.514;2024-03-02T10:00:31;9.90;99.90
24226;DHT22;51462;51.422;5.514;2024-03-02T10:02:56;10.00;99.90
24226;DHT22;51462;51.422;5.514;2024-03-02T10:05:27;10.00;99.90
24226;DHT22;51462;51.422;5.514;2024-03-02T10:07:59;10.10;99.90
24226;DHT22;51462;51.422;5.514;2024-03-02T10:10:37;10.10;99.90
24226;DHT22;51462;51.422;5.514;2024-03-02T10:13:06;10.10;99.90
24226;DHT22;51462;51.422;5.514;2024-03-02T10:15:33;10.20;99.90
24226;DHT22;51462;51.422;5.514;2024-03-02T10:17:58;10.20;99.90
24226;DHT22;51462;51.422;5.514;2024-03-02T10:20:27;10.30;99.90
24226;DHT22;51462;51.422;5.514;2024-03-02T10:23:14;10.30;99.90
24226;DHT22;51462;51.422;5.514;2024-03-02T10:25:42;10.30;99.90
24226;DHT22;51462;51.422;5.514;2024-03-02T10:28:07;10.40;99.90
24226;DHT22;51462;51.422;5.514;2024-03-02T10:30:33;10.50;99.90
24226;DHT22;51462;51.422;5.514;2024-03-02T10:33:01;10.50;99.90
24226;DHT22;51462;51.422;5.514;2024-03-02T10:35:27;10.50;99.90
24226;DHT22;51462;51.422;5.514;2024-03-02T10:37:53;10.70;99.90
24226;DHT22;51462;51.422;5.514;2024-03-02T10:40:21;10.70;99.90
24226;DHT22;51462;51.422;5.514;2024-03-02T10:42:47;10.80;99.90
24226;DHT22;51462;51.422;5.514;2024-03-02T10:45:15;10.90;99.90
24226;DHT22;51462;51.422;5.514;2024-03-02T10:47:43;10.90;99.90
24226;DHT22;51462;51.422;5.514;2024-03-02T10:50:09;10.90;99.90
24226;DHT22;51462;51.422;5.514;2024-03-02T10:52:35;11.00;99.90
24226;DHT22;51462;51.422;5.514;2024-03-02T10:55:02;10.90;99.90
24226;DHT22;51462;51.422;5.514;2024-03-02T10:57:36;10.90;99.90
24226;DHT22;51462;51.422;5.514;2024-03-02T11:00:06;11.00;99.90
24226;DHT22;51462;51.422;5.514;2024-03-02T11:02:35;11.20;99.90
24226;DHT22;51462;51.422;5.514;2024-03-02T11:05:05;11.10;99.90
24226;DHT22;51462;51.422;5.514;2024-03-02T11:07:33;11.20;99.90
24226;DHT22;51462;51.422;5.514;2024-03-02T11:10:01;11.50;99.90
24226;DHT22;51462;51.422;5.514;2024-03-02T11:12:38;11.50;99.90
24226;DHT22;51462;51.422;5.514;2024-03-02T11:15:10;11.20;99.90
24226;DHT22;51462;51.422;5.514;2024-03-02T11:17:39;11.20;99.90
24226;DHT22;51462;51.422;5.514;2024-03-02T11:20:06;11.30;99.90
24226;DHT22;51462;51.422;5.514;2024-03-02T11:22:35;11.40;99.90
24226;DHT22;51462;51.422;5.514;2024-03-02T11:25:01;11.70;99.90
24226;DHT22;51462;51.422;5.514;2024-03-02T11:32:59;12.00;99.90
24226;DHT22;51462;51.422;5.514;2024-03-02T11:35:26;11.80;99.90
24226;DHT22;51462;51.422;5.514;2024-03-02T11:37:53;11.90;99.90
24226;DHT22;51462;51.422;5.514;2024-03-02T11:40:28;11.90;99.90
24226;DHT22;51462;51.422;5.514;2024-03-02T11:42:54;11.70;99.90
24226;DHT22;51462;51.422;5.514;2024-03-02T11:45:25;11.70;99.90
24226;DHT22;51462;51.422;5.514;2024-03-02T11:47:54;11.70;99.90
24226;DHT22;51462;51.422;5.514;2024-03-02T11:50:30;11.60;99.90
24226;DHT22;51462;51.422;5.514;2024-03-02T11:52:57;11.90;99.90
24226;DHT22;51462;51.422;5.514;2024-03-02T11:55:27;12.20;99.90
24226;DHT22;51462;51.422;5.514;2024-03-02T11:57:54;12.20;99.90
24226;DHT22;51462;51.422;5.514;2024-03-02T12:00:20;12.20;99.90
24226;DHT22;51462;51.422;5.514;2024-03-02T12:03:00;12.20;99.90
24226;DHT22;51462;51.422;5.514;2024-03-02T12:05:27;12.20;99.90
24226;DHT22;51462;51.422;5.514;2024-03-02T12:08:01;12.50;99.90
24226;DHT22;51462;51.422;5.514;2024-03-02T12:10:27;12.60;99.90
24226;DHT22;51462;51.422;5.514;2024-03-02T12:13:00;12.80;99.90
24226;DHT22;51462;51.422;5.514;2024-03-02T12:15:28;12.80;99.90
24226;DHT22;51462;51.422;5.514;2024-03-02T12:17:55;12.60;99.90
24226;DHT22;51462;51.422;5.514;2024-03-02T12:20:21;12.90;99.90
24226;DHT22;51462;51.422;5.514;2024-03-02T12:22:57;13.10;99.90
24226;DHT22;51462;51.422;5.514;2024-03-02T12:25:24;12.80;99.90
24226;DHT22;51462;51.422;5.514;2024-03-02T12:27:56;12.60;99.90
24226;DHT22;51462;51.422;5.514;2024-03-02T12:30:23;12.50;99.90
24226;DHT22;51462;51.422;5.514;2024-03-02T12:32:50;12.70;99.90
24226;DHT22;51462;51.422;5.514;2024-03-02T12:35:15;12.80;99.90
24226;DHT22;51462;51.422;5.514;2024-03-02T12:37:48;13.30;99.90
24226;DHT22;51462;51.422;5.514;2024-03-02T12:40:16;13.50;99.90
24226;DHT22;51462;51.422;5.514;2024-03-02T12:42:44;13.80;99.90
24226;DHT22;51462;51.422;5.514;2024-03-02T12:45:11;13.50;99.90
24226;DHT22;51462;51.422;5.514;2024-03-02T12:47:37;13.20;99.90
24226;DHT22;51462;51.422;5.514;2024-03-02T12:50:06;13.10;99.90
24226;DHT22;51462;51.422;5.514;2024-03-02T12:52:32;13.00;99.90
24226;DHT22;51462;51.422;5.514;2024-03-02T12:55:00;13.00;99.90
24226;DHT22;51462;51.422;5.514;2024-03-02T12:57:26;13.40;99.90
24226;DHT22;51462;51.422;5.514;2024-03-02T13:00:13;13.90;99.90
24226;DHT22;51462;51.422;5.514;2024-03-02T13:02:42;13.60;99.90
24226;DHT22;51462;51.422;5.514;2024-03-02T13:05:08;13.50;99.90
24226;DHT22;51462;51.422;5.514;2024-03-02T13:07:37;13.80;99.90
24226;DHT22;51462;51.422;5.514;2024-03-02T13:10:04;14.10;99.90
24226;DHT22;51462;51.422;5.514;2024-03-02T13:12:30;14.20;99.90
24226;DHT22;51462;51.422;5.514;2024-03-02T13:14:58;14.10;99.90
24226;DHT22;51462;51.422;5.514;2024-03-02T13:17:24;13.70;99.90
24226;DHT22;51462;51.422;5.514;2024-03-02T13:19:53;14.20;99.90
24226;DHT22;51462;51.422;5.514;2024-03-02T13:22:19;14.60;99.90
24226;DHT22;51462;51.422;5.514;2024-03-02T13:24:45;14.60;99.90
24226;DHT22;51462;51.422;5.514;2024-03-02T13:27:11;14.50;99.90
24226;DHT22;51462;51.422;5.514;2024-03-02T13:29:37;14.90;99.90
24226;DHT22;51462;51.422;5.514;2024-03-02T13:32:03;14.70;99.90
24226;DHT22;51462;51.422;5.514;2024-03-02T13:34:28;14.70;99.90
24226;DHT22;51462;51.422;5.514;2024-03-02T13:36:54;14.60;99.90
24226;DHT22;51462;51.422;5.514;2024-03-02T13:39:19;14.50;99.90
24226;DHT22;51462;51.422;5.514;2024-03-02T13:41:45;14.60;99.90
24226;DHT22;51462;51.422;5.514;2024-03-02T13:44:21;14.80;99.90
24226;DHT22;51462;51.422;5.514;2024-03-02T13:46:47;15.40;99.90
24226;DHT22;51462;51.422;5.514;2024-03-02T13:49:13;15.80;99.90
24226;DHT22;51462;51.422;5.514;2024-03-02T13:51:39;15.20;99.90
24226;DHT22;51462;51.422;5.514;2024-03-02T13:54:05;15.10;99.90
24226;DHT22;51462;51.422;5.514;2024-03-02T13:56:31;14.40;99.90
24226;DHT22;51462;51.422;5.514;2024-03-02T13:58:58;15.10;99.90
24226;DHT22;51462;51.422;5.514;2024-03-02T14:01:24;15.30;99.90
24226;DHT22;51462;51.422;5.514;2024-03-02T14:03:50;15.00;99.90
24226;DHT22;51462;51.422;5.514;2024-03-02T14:06:16;15.00;99.90
24226;DHT22;51462;51.422;5.514;2024-03-02T14:08:42;15.50;99.90
24226;DHT22;51462;51.422;5.514;2024-03-02T14:11:10;15.70;99.90
24226;DHT22;51462;51.422;5.514;2024-03-02T14:13:40;16.60;99.90
24226;DHT22;51462;51.422;5.514;2024-03-02T14:16:06;17.10;99.90
24226;DHT22;51462;51.422;5.514;2024-03-02T14:18:32;17.20;99.90
24226;DHT22;51462;51.422;5.514;2024-03-02T14:20:57;16.90;99.90
24226;DHT22;51462;51.422;5.514;2024-03-02T14:23:23;17.00;99.90
24226;DHT22;51462;51.422;5.514;2024-03-02T14:25:51;17.50;99.90
24226;DHT22;51462;51.422;5.514;2024-03-02T14:28:16;17.30;99.90
24226;DHT22;51462;51.422;5.514;2024-03-02T14:30:42;17.70;99.90
24226;DHT22;51462;51.422;5.514;2024-03-02T14:33:08;17.70;99.90
24226;DHT22;51462;51.422;5.514;2024-03-02T14:35:33;17.00;99.90
24226;DHT22;51462;51.422;5.514;2024-03-02T14:37:59;16.60;99.90
24226;DHT22;51462;51.422;5.514;2024-03-02T14:40:25;17.00;99.90
24226;DHT22;51462;51.422;5.514;2024-03-02T14:42:53;17.00;99.90
24226;DHT22;51462;51.422;5.514;2024-03-02T14:45:18;16.70;99.90
24226;DHT22;51462;51.422;5.514;2024-03-02T14:47:44;16.90;99.90
24226;DHT22;51462;51.422;5.514;2024-03-02T14:50:10;18.90;99.90
24226;DHT22;51462;51.422;5.514;2024-03-02T14:52:36;18.60;99.90
24226;DHT22;51462;51.422;5.514;2024-03-02T14:55:02;19.10;99.90
24226;DHT22;51462;51.422;5.514;2024-03-02T14:57:32;19.20;99.90
24226;DHT22;51462;51.422;5.514;2024-03-02T14:59:58;18.70;99.90
24226;DHT22;51462;51.422;5.514;2024-03-02T15:02:24;18.80;99.90
24226;DHT22;51462;51.422;5.514;2024-03-02T15:04:49;17.70;99.90
24226;DHT22;51462;51.422;5.514;2024-03-02T15:07:15;16.80;99.90
24226;DHT22;51462;51.422;5.514;2024-03-02T15:09:41;16.40;99.90
24226;DHT22;51462;51.422;5.514;2024-03-02T15:12:07;16.00;99.90
24226;DHT22;51462;51.422;5.514;2024-03-02T15:14:36;15.70;99.90
24226;DHT22;51462;51.422;5.514;2024-03-02T15:17:04;15.70;99.90
24226;DHT22;51462;51.422;5.514;2024-03-02T15:19:29;15.80;99.90
24226;DHT22;51462;51.422;5.514;2024-03-02T15:21:58;16.80;99.90
24226;DHT22;51462;51.422;5.514;2024-03-02T15:24:26;16.50;99.90
24226;DHT22;51462;51.422;5.514;2024-03-02T15:26:52;16.40;99.90
24226;DHT22;51462;51.422;5.514;2024-03-02T15:29:17;15.60;99.90
24226;DHT22;51462;51.422;5.514;2024-03-02T15:31:43;15.20;99.90
24226;DHT22;51462;51.422;5.514;2024-03-02T15:34:09;15.00;99.90
24226;DHT22;51462;51.422;5.514;2024-03-02T15:36:35;14.90;99.90
24226;DHT22;51462;51.422;5.514;2024-03-02T15:39:00;15.00;99.90
24226;DHT22;51462;51.422;5.514;2024-03-02T15:41:27;15.20;99.90